createdAt,value
2018-07-15T00:01:56.260Z,19.81
2018-07-15T00:04:25.706Z,19.83
2018-07-15T00:06:55.131Z,19.84
2018-07-15T00:09:24.566Z,19.80
2018-07-15T00:11:53.977Z,19.80
2018-07-15T00:14:23.399Z,19.80
2018-07-15T00:16:53.418Z,19.82
2018-07-15T00:19:22.545Z,19.76
2018-07-15T00:21:52.174Z,19.76
2018-07-15T00:24:21.609Z,19.76
2018-07-15T00:26:51.047Z,19.76
2018-07-15T00:29:20.557Z,19.74
2018-07-15T00:31:50.007Z,19.72
2018-07-15T00:34:19.438Z,19.71
2018-07-15T00:36:48.916Z,19.65
2018-07-15T00:39:18.351Z,19.64
2018-07-15T00:41:48.296Z,19.63
2018-07-15T00:44:17.739Z,19.56
2018-07-15T00:46:47.178Z,19.54
2018-07-15T00:49:16.630Z,19.58
2018-07-15T00:51:47.322Z,19.59
2018-07-15T00:54:16.544Z,19.57
2018-07-15T00:56:46.021Z,19.54
2018-07-15T00:59:15.505Z,19.39
2018-07-15T01:01:44.941Z,19.45
2018-07-15T01:04:14.439Z,19.47
2018-07-15T01:06:43.974Z,19.45
2018-07-15T01:09:13.418Z,19.41
2018-07-15T01:11:42.875Z,19.33
2018-07-15T01:14:12.289Z,19.24
2018-07-15T01:16:42.080Z,19.13
2018-07-15T01:19:11.683Z,19.07
2018-07-15T01:21:41.120Z,19.03
2018-07-15T01:24:10.273Z,19.01
2018-07-15T01:26:39.746Z,19.04
2018-07-15T01:29:09.136Z,19.08
2018-07-15T01:31:38.835Z,19.05
2018-07-15T01:34:08.302Z,19.01
2018-07-15T01:36:37.832Z,19.02
2018-07-15T01:39:06.938Z,19.00
2018-07-15T01:41:36.414Z,19.00
2018-07-15T01:44:05.878Z,18.94
2018-07-15T01:46:35.574Z,18.92
2018-07-15T01:49:05.076Z,18.93
2018-07-15T01:51:34.509Z,18.92
2018-07-15T01:54:04.021Z,18.90
2018-07-15T01:56:33.467Z,18.83
2018-07-15T01:59:03.108Z,18.83
2018-07-15T02:01:32.546Z,18.77
2018-07-15T02:04:01.994Z,18.80
2018-07-15T02:06:31.171Z,18.78
2018-07-15T02:09:00.590Z,18.76
2018-07-15T02:11:30.035Z,18.76
2018-07-15T02:13:59.554Z,18.71
2018-07-15T02:16:28.983Z,18.62
2018-07-15T02:18:58.422Z,18.57
2018-07-15T02:21:27.606Z,18.53
2018-07-15T02:23:57.007Z,18.50
2018-07-15T02:26:26.418Z,18.46
2018-07-15T02:28:55.916Z,18.39
2018-07-15T02:31:25.527Z,18.36
2018-07-15T02:33:54.962Z,18.38
2018-07-15T02:36:24.401Z,18.38
2018-07-15T02:38:53.852Z,18.32
2018-07-15T02:41:23.366Z,18.33
2018-07-15T02:43:52.513Z,18.26
2018-07-15T02:46:21.966Z,18.22
2018-07-15T02:48:51.137Z,18.15
2018-07-15T02:51:20.598Z,18.13
2018-07-15T02:53:50.087Z,18.02
2018-07-15T02:56:20.083Z,18.00
2018-07-15T02:58:49.957Z,17.98
2018-07-15T03:01:19.659Z,17.97
2018-07-15T03:03:49.131Z,18.03
2018-07-15T03:06:18.521Z,18.01
2018-07-15T03:08:47.924Z,18.03
2018-07-15T03:11:17.447Z,18.04
2018-07-15T03:13:46.597Z,17.97
2018-07-15T03:16:16.085Z,17.96
2018-07-15T03:18:45.489Z,17.94
2018-07-15T03:21:14.935Z,17.90
2018-07-15T03:23:44.355Z,17.86
2018-07-15T03:26:13.753Z,17.85
2018-07-15T03:28:43.206Z,17.84
2018-07-15T03:31:12.621Z,17.80
2018-07-15T03:33:42.049Z,17.73
2018-07-15T03:36:11.568Z,17.66
2018-07-15T03:38:40.959Z,17.62
2018-07-15T03:41:10.410Z,17.62
2018-07-15T03:43:39.821Z,17.56
2018-07-15T03:46:09.823Z,17.60
2018-07-15T03:48:39.262Z,17.57
2018-07-15T03:51:08.722Z,17.58
2018-07-15T03:53:38.146Z,17.53
2018-07-15T03:56:07.544Z,17.58
2018-07-15T03:58:36.981Z,17.53
2018-07-15T04:01:06.466Z,17.48
2018-07-15T04:03:36.407Z,17.45
2018-07-15T04:06:05.885Z,17.42
2018-07-15T04:08:35.334Z,17.41
2018-07-15T04:11:04.798Z,17.42
2018-07-15T04:13:34.213Z,17.41
2018-07-15T04:16:03.673Z,17.46
2018-07-15T04:18:33.144Z,17.48
2018-07-15T04:21:02.607Z,17.48
2018-07-15T04:23:31.964Z,17.48
2018-07-15T04:26:01.418Z,17.52
2018-07-15T04:28:30.508Z,17.54
2018-07-15T04:30:59.951Z,17.48
2018-07-15T04:33:29.321Z,17.49
2018-07-15T04:35:58.417Z,17.49
2018-07-15T04:38:27.967Z,17.50
2018-07-15T04:40:57.428Z,17.47
2018-07-15T04:43:26.938Z,17.47
2018-07-15T04:45:56.366Z,17.51
2018-07-15T04:48:25.773Z,17.56
2018-07-15T04:50:55.197Z,17.60
2018-07-15T04:53:25.627Z,17.69
2018-07-15T04:55:55.221Z,17.70
2018-07-15T04:58:24.656Z,17.73
2018-07-15T05:00:54.689Z,17.72
2018-07-15T05:03:24.077Z,17.81
2018-07-15T05:05:53.516Z,17.88
2018-07-15T05:08:22.912Z,17.93
2018-07-15T05:10:52.307Z,18.03
2018-07-15T05:13:21.774Z,18.09
2018-07-15T05:15:51.237Z,18.15
2018-07-15T05:18:20.631Z,18.21
2018-07-15T05:20:50.684Z,18.26
2018-07-15T05:23:20.057Z,18.32
2018-07-15T05:25:49.475Z,18.39
2018-07-15T05:28:19.120Z,18.48
2018-07-15T05:30:48.537Z,18.55
2018-07-15T05:33:17.992Z,18.67
2018-07-15T05:35:47.425Z,18.74
2018-07-15T05:38:16.780Z,18.82
2018-07-15T05:40:46.252Z,18.91
2018-07-15T05:43:15.689Z,18.96
2018-07-15T05:45:45.100Z,18.99
2018-07-15T05:48:14.536Z,19.02
2018-07-15T05:50:45.382Z,19.04
2018-07-15T05:53:14.828Z,19.10
2018-07-15T05:55:44.270Z,19.13
2018-07-15T05:58:13.421Z,19.15
2018-07-15T06:00:42.812Z,19.18
2018-07-15T06:03:12.231Z,19.21
2018-07-15T06:05:41.648Z,19.20
2018-07-15T06:08:11.069Z,19.20
2018-07-15T06:10:40.535Z,19.18
2018-07-15T06:13:09.700Z,19.20
2018-07-15T06:15:38.930Z,19.19
2018-07-15T06:18:08.388Z,19.16
2018-07-15T06:20:37.855Z,19.04
2018-07-15T06:23:07.871Z,18.97
2018-07-15T06:25:37.359Z,18.97
2018-07-15T06:28:06.803Z,18.96
2018-07-15T06:30:36.321Z,18.85
2018-07-15T06:33:05.991Z,18.84
2018-07-15T06:35:35.402Z,18.89
2018-07-15T06:38:04.885Z,18.88
2018-07-15T06:40:34.394Z,18.90
2018-07-15T06:43:03.766Z,18.86
2018-07-15T06:45:32.966Z,18.87
2018-07-15T06:48:03.579Z,18.85
2018-07-15T06:50:33.024Z,18.88
2018-07-15T06:53:02.462Z,18.89
2018-07-15T06:55:32.210Z,18.89
2018-07-15T06:58:01.675Z,18.88
2018-07-15T07:00:31.123Z,18.87
2018-07-15T07:03:00.488Z,18.87
2018-07-15T07:05:29.911Z,18.90
2018-07-15T07:07:59.450Z,18.94
2018-07-15T07:10:29.474Z,18.95
2018-07-15T07:12:58.931Z,18.97
2018-07-15T07:15:28.363Z,18.97
2018-07-15T07:17:57.808Z,18.98
2018-07-15T07:20:27.338Z,19.00
2018-07-15T07:22:56.721Z,19.05
2018-07-15T07:25:26.210Z,19.13
2018-07-15T07:27:55.331Z,19.21
2018-07-15T07:30:24.772Z,19.31
2018-07-15T07:32:54.202Z,19.40
2018-07-15T07:35:23.696Z,19.46
2018-07-15T07:37:53.736Z,19.54
2018-07-15T07:40:23.178Z,19.61
2018-07-15T07:42:52.571Z,19.67
2018-07-15T07:45:22.752Z,19.76
2018-07-15T07:47:52.200Z,19.81
2018-07-15T07:50:21.685Z,19.88
2018-07-15T07:52:51.150Z,19.94
2018-07-15T07:55:20.647Z,20.01
2018-07-15T07:57:50.130Z,20.02
2018-07-15T08:00:20.112Z,20.07
2018-07-15T08:02:49.227Z,20.11
2018-07-15T08:05:18.708Z,20.09
2018-07-15T08:07:47.881Z,20.12
2018-07-15T08:10:17.291Z,20.11
2018-07-15T08:12:46.734Z,20.10
2018-07-15T08:15:16.273Z,20.11
2018-07-15T08:17:45.637Z,20.12
2018-07-15T08:20:15.070Z,20.15
2018-07-15T08:22:44.472Z,20.18
2018-07-15T08:25:13.915Z,20.24
2018-07-15T08:27:43.376Z,20.27
2018-07-15T08:30:29.485Z,20.31
2018-07-15T08:32:58.897Z,20.41
2018-07-15T08:35:28.316Z,20.50
2018-07-15T08:37:57.423Z,20.55
2018-07-15T08:40:26.865Z,20.63
2018-07-15T08:42:56.347Z,20.72
2018-07-15T08:45:25.836Z,20.83
2018-07-15T08:47:55.257Z,20.89
2018-07-15T08:50:25.348Z,20.98
2018-07-15T08:52:54.775Z,21.11
2018-07-15T08:55:24.241Z,21.18
2018-07-15T08:57:53.756Z,21.27
2018-07-15T09:00:23.271Z,21.36
2018-07-15T09:02:52.749Z,21.45
2018-07-15T09:05:24.225Z,21.54
2018-07-15T09:07:54.504Z,21.63
2018-07-15T09:10:26.025Z,21.70
2018-07-15T09:12:57.063Z,21.75
2018-07-15T09:15:27.531Z,21.80
2018-07-15T09:17:57.024Z,21.84
2018-07-15T09:20:26.713Z,21.89
2018-07-15T09:22:56.126Z,21.93
2018-07-15T09:25:25.587Z,21.93
2018-07-15T09:27:55.262Z,21.94
2018-07-15T09:30:24.779Z,21.97
2018-07-15T09:32:53.880Z,22.01
2018-07-15T09:35:23.316Z,22.03
2018-07-15T09:37:53.173Z,22.01
2018-07-15T09:40:22.645Z,22.04
2018-07-15T09:42:52.113Z,21.97
2018-07-15T09:45:22.186Z,22.01
2018-07-15T09:47:51.657Z,22.03
2018-07-15T09:50:21.112Z,22.01
2018-07-15T09:52:50.506Z,22.02
2018-07-15T09:55:19.974Z,21.95
2018-07-15T09:57:49.599Z,21.97
2018-07-15T10:00:24.310Z,22.01
2018-07-15T10:02:53.735Z,22.06
2018-07-15T10:05:23.209Z,22.11
2018-07-15T10:07:52.705Z,22.13
2018-07-15T10:10:22.210Z,22.14
2018-07-15T10:12:51.678Z,22.21
2018-07-15T10:15:21.132Z,22.20
2018-07-15T10:17:50.576Z,22.21
2018-07-15T10:20:20.006Z,22.19
2018-07-15T10:22:49.515Z,22.23
2018-07-15T10:25:18.976Z,22.25
2018-07-15T10:27:48.449Z,22.23
2018-07-15T10:30:17.883Z,22.29
2018-07-15T10:32:47.388Z,22.34
2018-07-15T10:35:16.854Z,22.36
2018-07-15T10:37:46.276Z,22.41
2018-07-15T10:40:15.730Z,22.46
2018-07-15T10:42:45.288Z,22.49
2018-07-15T10:45:14.691Z,22.46
2018-07-15T10:47:44.090Z,22.52
2018-07-15T10:50:13.586Z,22.63
2018-07-15T10:52:44.049Z,22.74
2018-07-15T10:55:13.496Z,22.79
2018-07-15T10:57:43.020Z,22.83
2018-07-15T11:00:12.509Z,22.84
2018-07-15T11:02:42.183Z,22.92
2018-07-15T11:05:11.664Z,23.05
2018-07-15T11:07:41.104Z,23.16
2018-07-15T11:10:10.608Z,23.26
2018-07-15T11:12:40.000Z,23.29
2018-07-15T11:15:09.450Z,23.35
2018-07-15T11:17:38.870Z,23.41
2018-07-15T11:20:08.024Z,23.48
2018-07-15T11:22:37.549Z,23.54
2018-07-15T11:25:07.173Z,23.57
2018-07-15T11:27:36.709Z,23.57
2018-07-15T11:30:06.512Z,23.61
2018-07-15T11:32:35.952Z,23.66
2018-07-15T11:35:05.477Z,23.72
2018-07-15T11:37:35.127Z,23.76
2018-07-15T11:40:04.636Z,23.83
2018-07-15T11:42:34.078Z,23.88
2018-07-15T11:45:03.469Z,23.89
2018-07-15T11:47:32.912Z,23.93
2018-07-15T11:50:02.385Z,23.96
2018-07-15T11:52:31.821Z,24.04
2018-07-15T11:55:01.497Z,24.09
2018-07-15T11:57:30.940Z,24.16
2018-07-15T12:00:00.325Z,24.30
2018-07-15T12:02:29.990Z,24.40
2018-07-15T12:04:59.433Z,24.44
2018-07-15T12:07:28.842Z,24.52
2018-07-15T12:09:58.292Z,24.65
2018-07-15T12:12:27.736Z,24.76
2018-07-15T12:14:57.310Z,24.77
2018-07-15T12:17:26.770Z,24.84
2018-07-15T12:19:56.192Z,24.87
2018-07-15T12:22:25.690Z,24.91
2018-07-15T12:24:55.106Z,24.97
2018-07-15T12:27:24.728Z,25.03
2018-07-15T12:29:54.794Z,25.14
2018-07-15T12:32:24.348Z,25.21
2018-07-15T12:34:53.829Z,25.31
2018-07-15T12:37:23.239Z,25.38
2018-07-15T12:39:52.735Z,25.52
2018-07-15T12:42:22.204Z,25.67
2018-07-15T12:44:51.979Z,25.79
2018-07-15T12:47:21.492Z,25.92
2018-07-15T12:49:50.976Z,26.02
2018-07-15T12:52:20.436Z,26.15
2018-07-15T12:54:49.923Z,26.28
2018-07-15T12:57:19.457Z,26.33
2018-07-15T12:59:48.913Z,26.37
2018-07-15T13:02:18.459Z,26.39
2018-07-15T13:04:47.629Z,26.42
2018-07-15T13:07:17.005Z,26.47
2018-07-15T13:09:46.448Z,26.43
2018-07-15T13:12:15.913Z,26.40
2018-07-15T13:14:45.368Z,26.33
2018-07-15T13:17:14.855Z,26.28
2018-07-15T13:19:44.280Z,26.19
2018-07-15T13:22:14.774Z,26.07
2018-07-15T13:24:44.919Z,26.05
2018-07-15T13:27:14.588Z,25.95
2018-07-15T13:29:44.046Z,25.91
2018-07-15T13:32:13.495Z,25.89
2018-07-15T13:34:42.912Z,25.86
2018-07-15T13:37:12.375Z,25.81
2018-07-15T13:39:41.506Z,25.75
2018-07-15T13:42:10.985Z,25.70
2018-07-15T13:44:40.476Z,25.65
2018-07-15T13:47:09.850Z,25.60
2018-07-15T13:49:39.304Z,25.56
2018-07-15T13:52:08.450Z,25.48
2018-07-15T13:54:37.943Z,25.41
2018-07-15T13:57:07.389Z,25.38
2018-07-15T13:59:36.916Z,25.35
2018-07-15T14:02:06.460Z,25.29
2018-07-15T14:04:35.914Z,25.25
2018-07-15T14:07:05.390Z,25.19
2018-07-15T14:09:34.851Z,25.09
2018-07-15T14:12:04.477Z,24.90
2018-07-15T14:14:34.013Z,24.82
2018-07-15T14:17:03.722Z,24.70
2018-07-15T14:19:33.154Z,24.50
2018-07-15T14:22:02.755Z,24.43
2018-07-15T14:24:32.250Z,24.40
2018-07-15T14:27:01.743Z,24.37
2018-07-15T14:29:31.177Z,24.32
2018-07-15T14:32:00.560Z,24.17
2018-07-15T14:34:32.792Z,23.94
2018-07-15T14:37:02.417Z,23.69
2018-07-15T14:39:37.942Z,23.47
2018-07-15T14:42:07.412Z,23.20
2018-07-15T14:44:38.541Z,23.06
2018-07-15T14:47:08.090Z,22.97
2018-07-15T14:49:37.608Z,22.88
2018-07-15T14:52:07.105Z,22.80
2018-07-15T14:54:36.218Z,22.69
2018-07-15T14:57:05.652Z,22.58
2018-07-15T14:59:35.069Z,22.53
2018-07-15T15:02:04.657Z,22.47
2018-07-15T15:04:34.038Z,22.34
2018-07-15T15:07:03.520Z,22.24
2018-07-15T15:09:32.617Z,22.15
2018-07-15T15:12:02.082Z,22.13
2018-07-15T15:14:31.528Z,21.97
2018-07-15T15:17:01.013Z,21.94
2018-07-15T15:19:30.463Z,21.93
2018-07-15T15:21:59.914Z,21.85
2018-07-15T15:24:29.351Z,21.70
2018-07-15T15:26:58.824Z,21.69
2018-07-15T15:29:28.254Z,21.61
2018-07-15T15:31:57.750Z,21.53
2018-07-15T15:34:27.238Z,21.44
2018-07-15T15:36:56.636Z,21.25
2018-07-15T15:39:26.082Z,21.20
2018-07-15T15:41:55.495Z,21.15
2018-07-15T15:44:26.026Z,21.10
2018-07-15T15:46:54.403Z,20.82
2018-07-15T15:49:23.882Z,20.81
2018-07-15T15:51:53.373Z,20.78
2018-07-15T15:54:22.979Z,20.81
2018-07-15T15:56:52.446Z,20.72
2018-07-15T15:59:21.883Z,20.69
2018-07-15T16:01:51.270Z,20.56
2018-07-15T16:04:20.660Z,20.46
2018-07-15T16:06:50.225Z,20.41
2018-07-15T16:09:19.721Z,20.37
2018-07-15T16:11:50.596Z,20.38
2018-07-15T16:14:19.774Z,20.37
2018-07-15T16:16:49.217Z,20.34
2018-07-15T16:19:18.700Z,20.34
2018-07-15T16:21:48.160Z,20.25
2018-07-15T16:24:17.768Z,20.20
2018-07-15T16:26:47.228Z,20.18
2018-07-15T16:29:16.713Z,20.10
2018-07-15T16:31:46.189Z,20.10
2018-07-15T16:34:16.753Z,20.05
2018-07-15T16:36:46.692Z,19.99
2018-07-15T16:39:15.849Z,19.98
2018-07-15T16:41:45.298Z,19.96
2018-07-15T16:44:14.669Z,19.99
2018-07-15T16:46:44.222Z,20.04
2018-07-15T16:49:13.648Z,20.03
2018-07-15T16:51:43.057Z,19.93
2018-07-15T16:54:13.042Z,19.96
2018-07-15T16:56:42.193Z,19.84
2018-07-15T16:59:11.618Z,19.93
2018-07-15T17:01:41.100Z,20.01
2018-07-15T17:04:10.530Z,20.09
2018-07-15T17:06:40.125Z,20.11
2018-07-15T17:09:09.568Z,20.08
2018-07-15T17:11:39.029Z,20.17
2018-07-15T17:14:08.497Z,20.19
2018-07-15T17:16:37.968Z,20.24
2018-07-15T17:19:07.134Z,20.28
2018-07-15T17:21:36.548Z,20.29
2018-07-15T17:24:06.075Z,20.27
2018-07-15T17:26:35.507Z,20.21
2018-07-15T17:29:04.950Z,20.19
2018-07-15T17:31:34.236Z,20.24
2018-07-15T17:34:03.639Z,20.28
2018-07-15T17:36:33.048Z,20.17
2018-07-15T17:39:02.512Z,20.18
2018-07-15T17:41:32.014Z,20.18
2018-07-15T17:44:01.494Z,20.21
2018-07-15T17:46:30.920Z,20.25
2018-07-15T17:49:00.426Z,20.26
2018-07-15T17:51:29.648Z,20.27
2018-07-15T17:53:59.049Z,20.29
2018-07-15T17:56:28.260Z,20.29
2018-07-15T17:58:57.770Z,20.28
2018-07-15T18:01:27.289Z,20.30
2018-07-15T18:03:56.688Z,20.31
2018-07-15T18:06:26.195Z,20.30
2018-07-15T18:08:55.596Z,20.29
2018-07-15T18:11:25.034Z,20.28
2018-07-15T18:13:54.988Z,20.25
2018-07-15T18:16:24.169Z,20.21
2018-07-15T18:18:53.624Z,20.24
2018-07-15T18:21:23.111Z,20.25
2018-07-15T18:23:52.543Z,20.24
2018-07-15T18:26:21.966Z,20.24
2018-07-15T18:28:51.377Z,20.17
2018-07-15T18:31:20.885Z,20.15
2018-07-15T18:33:50.910Z,20.14
2018-07-15T18:36:20.383Z,20.13
2018-07-15T18:38:49.806Z,20.14
2018-07-15T18:41:19.298Z,20.15
2018-07-15T18:43:48.685Z,20.16
2018-07-15T18:46:18.154Z,20.16
2018-07-15T18:48:48.429Z,20.08
2018-07-15T18:51:18.917Z,19.99
2018-07-15T18:53:48.458Z,19.98
2018-07-15T18:56:17.951Z,19.97
2018-07-15T18:58:47.393Z,19.97
2018-07-15T19:01:16.834Z,19.95
2018-07-15T19:03:46.304Z,19.92
2018-07-15T19:06:15.729Z,19.94
2018-07-15T19:08:45.193Z,19.92
2018-07-15T19:11:14.782Z,19.93
2018-07-15T19:13:44.393Z,19.95
2018-07-15T19:16:13.896Z,19.91
2018-07-15T19:18:43.402Z,19.93
2018-07-15T19:21:12.890Z,19.92
2018-07-15T19:23:42.098Z,19.88
2018-07-15T19:26:11.897Z,19.86
2018-07-15T19:28:41.359Z,19.76
2018-07-15T19:31:10.850Z,19.59
2018-07-15T19:33:41.501Z,19.59
2018-07-15T19:36:10.893Z,19.57
2018-07-15T19:38:40.307Z,19.58
2018-07-15T19:41:09.812Z,19.55
2018-07-15T19:43:39.276Z,19.52
2018-07-15T19:46:08.730Z,19.53
2018-07-15T19:48:38.256Z,19.40
2018-07-15T19:51:07.757Z,19.40
2018-07-15T19:53:37.240Z,19.39
2018-07-15T19:56:06.668Z,19.38
2018-07-15T19:58:36.705Z,19.38
2018-07-15T20:01:06.233Z,19.29
2018-07-15T20:03:35.568Z,19.29
2018-07-15T20:06:05.919Z,19.29
2018-07-15T20:08:35.459Z,19.27
2018-07-15T20:11:04.650Z,19.24
2018-07-15T20:13:34.642Z,19.23
2018-07-15T20:16:04.684Z,19.25
2018-07-15T20:18:34.269Z,19.26
2018-07-15T20:21:03.810Z,19.26
2018-07-15T20:23:32.994Z,19.10
2018-07-15T20:26:03.038Z,19.13
2018-07-15T20:28:32.203Z,19.12
2018-07-15T20:31:01.591Z,19.15
2018-07-15T20:33:31.079Z,19.15
2018-07-15T20:36:00.501Z,19.14
2018-07-15T20:38:33.176Z,19.12
2018-07-15T20:41:03.081Z,19.10
2018-07-15T20:43:32.581Z,19.11
2018-07-15T20:46:01.983Z,19.08
2018-07-15T20:48:31.396Z,19.06
2018-07-15T20:51:00.945Z,19.03
2018-07-15T20:53:30.399Z,19.04
2018-07-15T20:55:59.847Z,18.94
2018-07-15T20:58:29.291Z,18.99
2018-07-15T21:00:58.776Z,19.00
2018-07-15T21:03:28.230Z,19.01
2018-07-15T21:05:57.697Z,18.99
2018-07-15T21:08:26.879Z,18.99
2018-07-15T21:10:56.914Z,18.97
2018-07-15T21:13:26.124Z,18.99
2018-07-15T21:15:56.135Z,18.98
2018-07-15T21:18:25.636Z,18.91
2018-07-15T21:20:55.073Z,18.88
2018-07-15T21:23:24.492Z,18.85
2018-07-15T21:25:53.968Z,18.82
2018-07-15T21:28:23.523Z,18.85
2018-07-15T21:30:52.966Z,18.85
2018-07-15T21:33:22.515Z,18.83
2018-07-15T21:35:51.978Z,18.83
2018-07-15T21:38:21.420Z,18.85
2018-07-15T21:40:50.895Z,18.86
2018-07-15T21:43:20.351Z,18.86
2018-07-15T21:45:49.814Z,18.85
2018-07-15T21:48:19.201Z,18.84
2018-07-15T21:50:48.402Z,18.84
2018-07-15T21:53:17.833Z,18.83
2018-07-15T21:55:47.424Z,18.82
2018-07-15T21:58:16.577Z,18.74
2018-07-15T22:00:46.054Z,18.72
2018-07-15T22:03:15.467Z,18.70
2018-07-15T22:05:44.869Z,18.71
2018-07-15T22:08:31.240Z,18.69
2018-07-15T22:11:00.700Z,18.64
2018-07-15T22:13:30.150Z,18.61
2018-07-15T22:15:59.588Z,18.63
2018-07-15T22:18:29.066Z,18.62
2018-07-15T22:20:58.523Z,18.63
2018-07-15T22:23:28.202Z,18.58
2018-07-15T22:25:57.672Z,18.58
2018-07-15T22:28:27.054Z,18.56
2018-07-15T22:30:56.512Z,18.60
2018-07-15T22:33:25.961Z,18.55
2018-07-15T22:35:55.976Z,18.49
2018-07-15T22:38:25.410Z,18.49
2018-07-15T22:40:54.871Z,18.50
2018-07-15T22:43:24.284Z,18.49
2018-07-15T22:45:53.759Z,18.48
2018-07-15T22:48:23.319Z,18.47
2018-07-15T22:50:52.736Z,18.46
2018-07-15T22:53:22.151Z,18.42
2018-07-15T22:55:51.608Z,18.40
2018-07-15T22:58:20.996Z,18.38
2018-07-15T23:00:50.428Z,18.33
2018-07-15T23:03:20.451Z,18.31
2018-07-15T23:06:06.821Z,18.27
2018-07-15T23:08:36.237Z,18.26
2018-07-15T23:11:05.656Z,18.22
2018-07-15T23:13:35.058Z,18.16
2018-07-15T23:16:04.497Z,18.22
2018-07-15T23:18:33.934Z,18.20
2018-07-15T23:21:04.176Z,18.20
2018-07-15T23:23:33.631Z,18.18
2018-07-15T23:26:03.075Z,18.16
2018-07-15T23:28:32.571Z,18.17
2018-07-15T23:31:01.997Z,18.10
2018-07-15T23:33:31.441Z,18.07
2018-07-15T23:36:00.864Z,18.01
2018-07-15T23:38:30.309Z,18.00
2018-07-15T23:40:59.711Z,18.02
2018-07-15T23:43:29.155Z,17.99
2018-07-15T23:45:58.652Z,17.99
2018-07-15T23:48:27.914Z,17.94
2018-07-15T23:50:57.338Z,17.92
2018-07-15T23:53:27.374Z,17.91
2018-07-15T23:55:56.797Z,17.82
2018-07-15T23:58:26.187Z,17.76
